sensor_id;sensor_type;location;lat;lon;timestamp;pressure;altitude;pressure_sealevel;temperature;humidity
38197;BME280;26543;51.976;4.616;2024-02-16T00:01:45;58993.00;;;-140.72;100.00
38197;BME280;26543;51.976;4.616;2024-02-16T00:04:10;59019.44;;;-140.72;100.00
38197;BME280;26543;51.976;4.616;2024-02-16T00:06:35;59072.28;;;-140.72;100.00
38197;BME280;26543;51.976;4.616;2024-02-16T00:09:01;59047.91;;;-140.72;100.00
38197;BME280;26543;51.976;4.616;2024-02-16T00:11:26;59074.31;;;-140.72;100.00
38197;BME280;26543;51.976;4.616;2024-02-16T00:13:52;59137.31;;;-140.72;100.00
38197;BME280;26543;51.976;4.616;2024-02-16T00:16:18;59114.97;;;-140.72;100.00
38197;BME280;26543;51.976;4.616;2024-02-16T00:18:43;59196.28;;;-140.72;100.00
38197;BME280;26543;51.976;4.616;2024-02-16T00:21:08;59198.31;;;-140.72;100.00
38197;BME280;26543;51.976;4.616;2024-02-16T00:23:34;59139.34;;;-140.72;100.00
38197;BME280;26543;51.976;4.616;2024-02-16T00:26:01;59139.34;;;-140.72;100.00
38197;BME280;26543;51.976;4.616;2024-02-16T00:28:26;59173.91;;;-140.72;100.00
38197;BME280;26543;51.976;4.616;2024-02-16T00:30:51;59137.31;;;-140.72;100.00
38197;BME280;26543;51.976;4.616;2024-02-16T00:33:17;59171.88;;;-140.72;100.00
38197;BME280;26543;51.976;4.616;2024-02-16T00:35:44;59157.66;;;-140.72;100.00
38197;BME280;26543;51.976;4.616;2024-02-16T00:38:09;59141.38;;;-140.72;100.00
38197;BME280;26543;51.976;4.616;2024-02-16T00:40:34;59108.88;;;-140.72;100.00
38197;BME280;26543;51.976;4.616;2024-02-16T00:43:00;59121.06;;;-140.72;100.00
38197;BME280;26543;51.976;4.616;2024-02-16T00:45:25;59155.63;;;-140.72;100.00
38197;BME280;26543;51.976;4.616;2024-02-16T00:47:50;59084.47;;;-140.72;100.00
38197;BME280;26543;51.976;4.616;2024-02-16T00:50:15;59011.31;;;-140.72;100.00
38197;BME280;26543;51.976;4.616;2024-02-16T00:52:41;58993.00;;;-140.72;100.00
38197;BME280;26543;51.976;4.616;2024-02-16T00:55:07;58997.09;;;-140.72;100.00
38197;BME280;26543;51.976;4.616;2024-02-16T00:57:33;58999.13;;;-140.72;100.00
38197;BME280;26543;51.976;4.616;2024-02-16T00:59:59;58932.03;;;-140.72;100.00
38197;BME280;26543;51.976;4.616;2024-02-16T01:02:24;58897.50;;;-140.72;100.00
38197;BME280;26543;51.976;4.616;2024-02-16T01:04:50;58860.91;;;-140.72;100.00
38197;BME280;26543;51.976;4.616;2024-02-16T01:07:16;58895.47;;;-140.72;100.00
38197;BME280;26543;51.976;4.616;2024-02-16T01:09:42;58864.97;;;-140.72;100.00
38197;BME280;26543;51.976;4.616;2024-02-16T01:12:08;58840.59;;;-140.72;100.00
38197;BME280;26543;51.976;4.616;2024-02-16T01:14:33;58787.75;;;-140.72;100.00
38197;BME280;26543;51.976;4.616;2024-02-16T01:16:59;58826.34;;;-140.72;100.00
38197;BME280;26543;51.976;4.616;2024-02-16T01:19:24;58787.75;;;-140.72;100.00
38197;BME280;26543;51.976;4.616;2024-02-16T01:21:50;58814.16;;;-140.72;100.00
38197;BME280;26543;51.976;4.616;2024-02-16T01:24:18;58791.81;;;-140.72;100.00
38197;BME280;26543;51.976;4.616;2024-02-16T01:26:44;58771.47;;;-140.72;100.00
38197;BME280;26543;51.976;4.616;2024-02-16T01:29:09;58765.38;;;-140.72;100.00
38197;BME280;26543;51.976;4.616;2024-02-16T01:31:34;58775.53;;;-140.72;100.00
38197;BME280;26543;51.976;4.616;2024-02-16T01:34:01;58763.34;;;-140.72;100.00
38197;BME280;26543;51.976;4.616;2024-02-16T01:36:26;58814.16;;;-140.72;100.00
38197;BME280;26543;51.976;4.616;2024-02-16T01:38:52;58747.09;;;-140.72;100.00
38197;BME280;26543;51.976;4.616;2024-02-16T01:41:17;58743.03;;;-140.72;100.00
38197;BME280;26543;51.976;4.616;2024-02-16T01:43:43;58741.00;;;-140.72;100.00
38197;BME280;26543;51.976;4.616;2024-02-16T01:46:08;58767.41;;;-140.72;100.00
38197;BME280;26543;51.976;4.616;2024-02-16T01:48:33;58777.56;;;-140.72;100.00
38197;BME280;26543;51.976;4.616;2024-02-16T01:50:59;58799.94;;;-140.72;100.00
38197;BME280;26543;51.976;4.616;2024-02-16T01:53:26;58816.19;;;-140.72;100.00
38197;BME280;26543;51.976;4.616;2024-02-16T01:55:52;58862.94;;;-140.72;100.00
38197;BME280;26543;51.976;4.616;2024-02-16T01:58:17;58844.66;;;-140.72;100.00
38197;BME280;26543;51.976;4.616;2024-02-16T02:00:43;58893.44;;;-140.72;100.00
38197;BME280;26543;51.976;4.616;2024-02-16T02:03:08;58913.75;;;-140.72;100.00
38197;BME280;26543;51.976;4.616;2024-02-16T02:05:43;58864.97;;;-140.72;100.00
38197;BME280;26543;51.976;4.616;2024-02-16T02:08:10;58856.84;;;-140.72;100.00
38197;BME280;26543;51.976;4.616;2024-02-16T02:10:35;58867.00;;;-140.72;100.00
38197;BME280;26543;51.976;4.616;2024-02-16T02:13:01;58854.81;;;-140.72;100.00
38197;BME280;26543;51.976;4.616;2024-02-16T02:15:27;58885.28;;;-140.72;100.00
38197;BME280;26543;51.976;4.616;2024-02-16T02:17:53;58856.84;;;-140.72;100.00
38197;BME280;26543;51.976;4.616;2024-02-16T02:20:18;58881.22;;;-140.72;100.00
38197;BME280;26543;51.976;4.616;2024-02-16T02:22:43;58864.97;;;-140.72;100.00
38197;BME280;26543;51.976;4.616;2024-02-16T02:25:08;58824.31;;;-140.72;100.00
38197;BME280;26543;51.976;4.616;2024-02-16T02:27:36;58850.75;;;-140.72;100.00
38197;BME280;26543;51.976;4.616;2024-02-16T02:30:01;58832.44;;;-140.72;100.00
38197;BME280;26543;51.976;4.616;2024-02-16T02:32:27;58771.47;;;-140.72;100.00
38197;BME280;26543;51.976;4.616;2024-02-16T02:34:53;58767.41;;;-140.72;100.00
38197;BME280;26543;51.976;4.616;2024-02-16T02:37:18;58690.19;;;-140.72;100.00
38197;BME280;26543;51.976;4.616;2024-02-16T02:39:43;58665.78;;;-140.72;100.00
38197;BME280;26543;51.976;4.616;2024-02-16T02:42:09;58621.09;;;-140.72;100.00
38197;BME280;26543;51.976;4.616;2024-02-16T02:44:35;58608.88;;;-140.72;100.00
38197;BME280;26543;51.976;4.616;2024-02-16T02:47:01;58580.44;;;-140.72;100.00
38197;BME280;26543;51.976;4.616;2024-02-16T02:49:26;58547.91;;;-140.72;100.00
38197;BME280;26543;51.976;4.616;2024-02-16T02:51:51;58519.47;;;-140.72;100.00
38197;BME280;26543;51.976;4.616;2024-02-16T02:54:17;58507.28;;;-140.72;100.00
38197;BME280;26543;51.976;4.616;2024-02-16T02:56:43;58493.06;;;-140.72;100.00
38197;BME280;26543;51.976;4.616;2024-02-16T02:59:08;58401.59;;;-140.72;100.00
38197;BME280;26543;51.976;4.616;2024-02-16T03:01:35;58413.78;;;-140.72;100.00
38197;BME280;26543;51.976;4.616;2024-02-16T03:04:01;58409.72;;;-140.72;100.00
38197;BME280;26543;51.976;4.616;2024-02-16T03:06:27;58432.09;;;-140.72;100.00
38197;BME280;26543;51.976;4.616;2024-02-16T03:08:52;58426.00;;;-140.72;100.00
38197;BME280;26543;51.976;4.616;2024-02-16T03:11:17;58344.69;;;-140.72;100.00
38197;BME280;26543;51.976;4.616;2024-02-16T03:13:43;58312.19;;;-140.72;100.00
38197;BME280;26543;51.976;4.616;2024-02-16T03:16:08;58383.31;;;-140.72;100.00
38197;BME280;26543;51.976;4.616;2024-02-16T03:18:34;58300.00;;;-140.72;100.00
38197;BME280;26543;51.976;4.616;2024-02-16T03:20:59;58259.34;;;-140.72;100.00
38197;BME280;26543;51.976;4.616;2024-02-16T03:23:25;58255.28;;;-140.72;100.00
38197;BME280;26543;51.976;4.616;2024-02-16T03:25:50;58241.06;;;-140.72;100.00
38197;BME280;26543;51.976;4.616;2024-02-16T03:28:16;58259.34;;;-140.72;100.00
38197;BME280;26543;51.976;4.616;2024-02-16T03:30:42;58241.06;;;-140.72;100.00
38197;BME280;26543;51.976;4.616;2024-02-16T03:33:08;58182.13;;;-140.72;100.00
38197;BME280;26543;51.976;4.616;2024-02-16T03:35:33;58212.63;;;-140.72;100.00
38197;BME280;26543;51.976;4.616;2024-02-16T03:37:59;58198.38;;;-140.72;100.00
38197;BME280;26543;51.976;4.616;2024-02-16T03:40:25;58184.16;;;-140.72;100.00
38197;BME280;26543;51.976;4.616;2024-02-16T03:42:54;58234.97;;;-140.72;100.00
38197;BME280;26543;51.976;4.616;2024-02-16T03:45:19;58212.63;;;-140.72;100.00
38197;BME280;26543;51.976;4.616;2024-02-16T03:47:45;58253.25;;;-140.72;100.00
38197;BME280;26543;51.976;4.616;2024-02-16T03:50:10;58293.91;;;-140.72;100.00
38197;BME280;26543;51.976;4.616;2024-02-16T03:52:36;58283.75;;;-140.72;100.00
38197;BME280;26543;51.976;4.616;2024-02-16T03:55:02;58312.19;;;-140.72;100.00
38197;BME280;26543;51.976;4.616;2024-02-16T03:57:29;58324.38;;;-140.72;100.00
38197;BME280;26543;51.976;4.616;2024-02-16T03:59:55;58356.91;;;-140.72;100.00
38197;BME280;26543;51.976;4.616;2024-02-16T04:02:20;58369.09;;;-140.72;100.00
38197;BME280;26543;51.976;4.616;2024-02-16T04:04:46;58371.13;;;-140.72;100.00
38197;BME280;26543;51.976;4.616;2024-02-16T04:07:11;58411.75;;;-140.72;100.00
38197;BME280;26543;51.976;4.616;2024-02-16T04:09:37;58409.72;;;-140.72;100.00
38197;BME280;26543;51.976;4.616;2024-02-16T04:12:03;58511.34;;;-140.72;100.00
38197;BME280;26543;51.976;4.616;2024-02-16T04:14:29;58474.75;;;-140.72;100.00
38197;BME280;26543;51.976;4.616;2024-02-16T04:16:55;58501.19;;;-140.72;100.00
38197;BME280;26543;51.976;4.616;2024-02-16T04:19:23;58513.38;;;-140.72;100.00
38197;BME280;26543;51.976;4.616;2024-02-16T04:21:48;58491.03;;;-140.72;100.00
38197;BME280;26543;51.976;4.616;2024-02-16T04:24:13;58511.34;;;-140.72;100.00
38197;BME280;26543;51.976;4.616;2024-02-16T04:26:39;58521.50;;;-140.72;100.00
38197;BME280;26543;51.976;4.616;2024-02-16T04:29:04;58501.19;;;-140.72;100.00
38197;BME280;26543;51.976;4.616;2024-02-16T04:31:30;58525.56;;;-140.72;100.00
38197;BME280;26543;51.976;4.616;2024-02-16T04:33:55;58491.03;;;-140.72;100.00
38197;BME280;26543;51.976;4.616;2024-02-16T04:36:20;58482.88;;;-140.72;100.00
38197;BME280;26543;51.976;4.616;2024-02-16T04:38:46;58531.66;;;-140.72;100.00
38197;BME280;26543;51.976;4.616;2024-02-16T04:41:12;58495.09;;;-140.72;100.00
38197;BME280;26543;51.976;4.616;2024-02-16T04:43:38;58511.34;;;-140.72;100.00
38197;BME280;26543;51.976;4.616;2024-02-16T04:46:04;58511.34;;;-140.72;100.00
38197;BME280;26543;51.976;4.616;2024-02-16T04:48:29;58507.28;;;-140.72;100.00
38197;BME280;26543;51.976;4.616;2024-02-16T04:50:56;58543.84;;;-140.72;100.00
38197;BME280;26543;51.976;4.616;2024-02-16T04:53:21;58541.81;;;-140.72;100.00
38197;BME280;26543;51.976;4.616;2024-02-16T04:55:46;58523.53;;;-140.72;100.00
38197;BME280;26543;51.976;4.616;2024-02-16T04:58:12;58525.56;;;-140.72;100.00
38197;BME280;26543;51.976;4.616;2024-02-16T05:00:38;58527.59;;;-140.72;100.00
38197;BME280;26543;51.976;4.616;2024-02-16T05:03:03;58556.06;;;-140.72;100.00
38197;BME280;26543;51.976;4.616;2024-02-16T05:05:29;58527.59;;;-140.72;100.00
38197;BME280;26543;51.976;4.616;2024-02-16T05:07:55;58505.25;;;-140.72;100.00
38197;BME280;26543;51.976;4.616;2024-02-16T05:10:21;58543.84;;;-140.72;100.00
38197;BME280;26543;51.976;4.616;2024-02-16T05:12:46;58503.22;;;-140.72;100.00
38197;BME280;26543;51.976;4.616;2024-02-16T05:15:12;58527.59;;;-140.72;100.00
38197;BME280;26543;51.976;4.616;2024-02-16T05:17:40;58519.47;;;-140.72;100.00
38197;BME280;26543;51.976;4.616;2024-02-16T05:20:10;58482.88;;;-140.72;100.00
38197;BME280;26543;51.976;4.616;2024-02-16T05:22:41;58360.97;;;-140.72;100.00
38197;BME280;26543;51.976;4.616;2024-02-16T05:25:06;58328.44;;;-140.72;100.00
38197;BME280;26543;51.976;4.616;2024-02-16T05:27:31;58279.66;;;-140.72;100.00
38197;BME280;26543;51.976;4.616;2024-02-16T05:29:59;58216.69;;;-140.72;100.00
38197;BME280;26543;51.976;4.616;2024-02-16T05:32:25;58171.97;;;-140.72;100.00
38197;BME280;26543;51.976;4.616;2024-02-16T05:34:50;58184.16;;;-140.72;100.00
38197;BME280;26543;51.976;4.616;2024-02-16T05:37:15;58228.88;;;-140.72;100.00
38197;BME280;26543;51.976;4.616;2024-02-16T05:39:41;58230.91;;;-140.72;100.00
38197;BME280;26543;51.976;4.616;2024-02-16T05:42:20;58261.38;;;-140.72;100.00
38197;BME280;26543;51.976;4.616;2024-02-16T05:44:47;58273.56;;;-140.72;100.00
38197;BME280;26543;51.976;4.616;2024-02-16T05:47:14;58263.41;;;-140.72;100.00
38197;BME280;26543;51.976;4.616;2024-02-16T05:49:40;58289.84;;;-140.72;100.00
38197;BME280;26543;51.976;4.616;2024-02-16T05:52:05;58287.81;;;-140.72;100.00
38197;BME280;26543;51.976;4.616;2024-02-16T05:54:43;58263.41;;;-140.72;100.00
38197;BME280;26543;51.976;4.616;2024-02-16T05:57:09;58237.00;;;-140.72;100.00
38197;BME280;26543;51.976;4.616;2024-02-16T05:59:34;58253.25;;;-140.72;100.00
38197;BME280;26543;51.976;4.616;2024-02-16T06:02:00;58306.09;;;-140.72;100.00
38197;BME280;26543;51.976;4.616;2024-02-16T06:04:25;58275.59;;;-140.72;100.00
38197;BME280;26543;51.976;4.616;2024-02-16T06:06:51;58352.84;;;-140.72;100.00
38197;BME280;26543;51.976;4.616;2024-02-16T06:09:19;58405.66;;;-140.72;100.00
38197;BME280;26543;51.976;4.616;2024-02-16T06:11:44;58499.16;;;-140.72;100.00
38197;BME280;26543;51.976;4.616;2024-02-16T06:14:09;58486.97;;;-140.72;100.00
38197;BME280;26543;51.976;4.616;2024-02-16T06:16:34;58509.31;;;-140.72;100.00
38197;BME280;26543;51.976;4.616;2024-02-16T06:19:00;58543.84;;;-140.72;100.00
38197;BME280;26543;51.976;4.616;2024-02-16T06:21:25;58539.78;;;-140.72;100.00
38197;BME280;26543;51.976;4.616;2024-02-16T06:23:50;58619.06;;;-140.72;100.00
38197;BME280;26543;51.976;4.616;2024-02-16T06:26:16;58645.47;;;-140.72;100.00
38197;BME280;26543;51.976;4.616;2024-02-16T06:28:41;58684.09;;;-140.72;100.00
38197;BME280;26543;51.976;4.616;2024-02-16T06:31:06;58694.25;;;-140.72;100.00
38197;BME280;26543;51.976;4.616;2024-02-16T06:33:32;58763.34;;;-140.72;100.00
38197;BME280;26543;51.976;4.616;2024-02-16T06:35:57;58736.94;;;-140.72;100.00
38197;BME280;26543;51.976;4.616;2024-02-16T06:38:23;58838.53;;;-140.72;100.00
38197;BME280;26543;51.976;4.616;2024-02-16T06:40:48;58828.38;;;-140.72;100.00
38197;BME280;26543;51.976;4.616;2024-02-16T06:43:14;58840.59;;;-140.72;100.00
38197;BME280;26543;51.976;4.616;2024-02-16T06:45:39;58856.84;;;-140.72;100.00
38197;BME280;26543;51.976;4.616;2024-02-16T06:48:05;58897.50;;;-140.72;100.00
38197;BME280;26543;51.976;4.616;2024-02-16T06:50:31;58854.81;;;-140.72;100.00
38197;BME280;26543;51.976;4.616;2024-02-16T06:52:56;58891.38;;;-140.72;100.00
38197;BME280;26543;51.976;4.616;2024-02-16T06:55:21;58895.47;;;-140.72;100.00
38197;BME280;26543;51.976;4.616;2024-02-16T06:57:47;58925.94;;;-140.72;100.00
38197;BME280;26543;51.976;4.616;2024-02-16T07:00:13;58934.06;;;-140.72;100.00
38197;BME280;26543;51.976;4.616;2024-02-16T07:02:38;58966.59;;;-140.72;100.00
38197;BME280;26543;51.976;4.616;2024-02-16T07:05:04;58952.38;;;-140.72;100.00
38197;BME280;26543;51.976;4.616;2024-02-16T07:07:29;58976.75;;;-140.72;100.00
38197;BME280;26543;51.976;4.616;2024-02-16T07:09:54;58986.91;;;-140.72;100.00
38197;BME280;26543;51.976;4.616;2024-02-16T07:12:20;59031.63;;;-140.72;100.00
38197;BME280;26543;51.976;4.616;2024-02-16T07:14:46;59064.16;;;-140.72;100.00
38197;BME280;26543;51.976;4.616;2024-02-16T07:17:15;59035.69;;;-140.72;100.00
38197;BME280;26543;51.976;4.616;2024-02-16T07:19:40;59072.28;;;-140.72;100.00
38197;BME280;26543;51.976;4.616;2024-02-16T07:22:05;59049.94;;;-140.72;100.00
38197;BME280;26543;51.976;4.616;2024-02-16T07:24:35;59064.16;;;-140.72;100.00
38197;BME280;26543;51.976;4.616;2024-02-16T07:27:00;59056.03;;;-140.72;100.00
38197;BME280;26543;51.976;4.616;2024-02-16T07:29:27;58974.72;;;-140.72;100.00
38197;BME280;26543;51.976;4.616;2024-02-16T07:31:53;59027.56;;;-140.72;100.00
38197;BME280;26543;51.976;4.616;2024-02-16T07:34:19;59039.75;;;-140.72;100.00
38197;BME280;26543;51.976;4.616;2024-02-16T07:36:45;58964.56;;;-140.72;100.00
38197;BME280;26543;51.976;4.616;2024-02-16T07:39:10;58978.78;;;-140.72;100.00
38197;BME280;26543;51.976;4.616;2024-02-16T07:41:37;58938.13;;;-140.72;100.00
38197;BME280;26543;51.976;4.616;2024-02-16T07:44:03;58952.38;;;-140.72;100.00
38197;BME280;26543;51.976;4.616;2024-02-16T07:46:28;58954.41;;;-140.72;100.00
38197;BME280;26543;51.976;4.616;2024-02-16T07:48:53;58925.94;;;-140.72;100.00
38197;BME280;26543;51.976;4.616;2024-02-16T07:51:20;58934.06;;;-140.72;100.00
38197;BME280;26543;51.976;4.616;2024-02-16T07:53:45;58836.50;;;-140.72;100.00
38197;BME280;26543;51.976;4.616;2024-02-16T07:56:11;58730.84;;;-140.72;100.00
38197;BME280;26543;51.976;4.616;2024-02-16T07:58:37;58783.66;;;-140.72;100.00
38197;BME280;26543;51.976;4.616;2024-02-16T08:01:02;58688.16;;;-140.72;100.00
38197;BME280;26543;51.976;4.616;2024-02-16T08:03:27;58643.44;;;-140.72;100.00
38197;BME280;26543;51.976;4.616;2024-02-16T08:05:55;58560.13;;;-140.72;100.00
38197;BME280;26543;51.976;4.616;2024-02-16T08:08:22;58572.31;;;-140.72;100.00
38197;BME280;26543;51.976;4.616;2024-02-16T08:10:48;58552.00;;;-140.72;100.00
38197;BME280;26543;51.976;4.616;2024-02-16T08:13:13;58521.50;;;-140.72;100.00
38197;BME280;26543;51.976;4.616;2024-02-16T08:15:39;58519.47;;;-140.72;100.00
38197;BME280;26543;51.976;4.616;2024-02-16T08:18:04;58523.53;;;-140.72;100.00
38197;BME280;26543;51.976;4.616;2024-02-16T08:20:30;58458.50;;;-140.72;100.00
38197;BME280;26543;51.976;4.616;2024-02-16T08:22:56;58519.47;;;-140.72;100.00
38197;BME280;26543;51.976;4.616;2024-02-16T08:25:21;58503.22;;;-140.72;100.00
38197;BME280;26543;51.976;4.616;2024-02-16T08:27:47;58554.03;;;-140.72;100.00
38197;BME280;26543;51.976;4.616;2024-02-16T08:30:14;58482.88;;;-140.72;100.00
38197;BME280;26543;51.976;4.616;2024-02-16T08:32:40;58545.88;;;-140.72;100.00
38197;BME280;26543;51.976;4.616;2024-02-16T08:35:05;58529.63;;;-140.72;100.00
38197;BME280;26543;51.976;4.616;2024-02-16T08:37:31;58554.03;;;-140.72;100.00
38197;BME280;26543;51.976;4.616;2024-02-16T08:39:57;58515.41;;;-140.72;100.00
38197;BME280;26543;51.976;4.616;2024-02-16T08:42:22;58594.66;;;-140.72;100.00
38197;BME280;26543;51.976;4.616;2024-02-16T08:44:48;58562.16;;;-140.72;100.00
38197;BME280;26543;51.976;4.616;2024-02-16T08:47:14;58612.97;;;-140.72;100.00
38197;BME280;26543;51.976;4.616;2024-02-16T08:49:40;58612.97;;;-140.72;100.00
38197;BME280;26543;51.976;4.616;2024-02-16T08:52:07;58592.63;;;-140.72;100.00
38197;BME280;26543;51.976;4.616;2024-02-16T08:54:33;58608.88;;;-140.72;100.00
38197;BME280;26543;51.976;4.616;2024-02-16T08:56:58;58602.78;;;-140.72;100.00
38197;BME280;26543;51.976;4.616;2024-02-16T08:59:23;58564.19;;;-140.72;100.00
38197;BME280;26543;51.976;4.616;2024-02-16T09:01:49;58537.75;;;-140.72;100.00
38197;BME280;26543;51.976;4.616;2024-02-16T09:04:14;58442.25;;;-140.72;100.00
38197;BME280;26543;51.976;4.616;2024-02-16T09:06:41;58501.19;;;-140.72;100.00
38197;BME280;26543;51.976;4.616;2024-02-16T09:09:07;58423.97;;;-140.72;100.00
38197;BME280;26543;51.976;4.616;2024-02-16T09:11:33;58395.50;;;-140.72;100.00
38197;BME280;26543;51.976;4.616;2024-02-16T09:13:59;58395.50;;;-140.72;100.00
38197;BME280;26543;51.976;4.616;2024-02-16T09:16:25;58413.78;;;-140.72;100.00
38197;BME280;26543;51.976;4.616;2024-02-16T09:18:50;58391.44;;;-140.72;100.00
38197;BME280;26543;51.976;4.616;2024-02-16T09:21:16;58527.59;;;-140.72;100.00
38197;BME280;26543;51.976;4.616;2024-02-16T09:23:41;58673.94;;;-140.72;100.00
38197;BME280;26543;51.976;4.616;2024-02-16T09:26:07;58779.59;;;-140.72;100.00
38197;BME280;26543;51.976;4.616;2024-02-16T09:28:38;59029.59;;;-140.72;100.00
38197;BME280;26543;51.976;4.616;2024-02-16T09:31:05;59182.03;;;-140.72;100.00
38197;BME280;26543;51.976;4.616;2024-02-16T09:33:30;59322.28;;;-140.72;100.00
38197;BME280;26543;51.976;4.616;2024-02-16T09:35:55;59425.97;;;-140.72;100.00
38197;BME280;26543;51.976;4.616;2024-02-16T09:38:21;59602.81;;;-140.72;100.00
38197;BME280;26543;51.976;4.616;2024-02-16T09:40:46;59753.25;;;-140.72;100.00
38197;BME280;26543;51.976;4.616;2024-02-16T09:43:24;59852.84;;;-140.72;100.00
38197;BME280;26543;51.976;4.616;2024-02-16T09:45:55;59989.06;;;-140.72;100.00
38197;BME280;26543;51.976;4.616;2024-02-16T09:48:21;60157.81;;;-140.72;100.00
38197;BME280;26543;51.976;4.616;2024-02-16T09:50:49;60336.72;;;-140.72;100.00
38197;BME280;26543;51.976;4.616;2024-02-16T09:53:16;60564.44;;;-140.72;100.00
38197;BME280;26543;51.976;4.616;2024-02-16T09:55:42;60731.19;;;-140.72;100.00
38197;BME280;26543;51.976;4.616;2024-02-16T09:58:08;60922.31;;;-140.72;100.00
38197;BME280;26543;51.976;4.616;2024-02-16T10:00:33;61125.69;;;-140.72;100.00
38197;BME280;26543;51.976;4.616;2024-02-16T10:02:58;61337.19;;;-140.72;100.00
38197;BME280;26543;51.976;4.616;2024-02-16T10:05:24;61558.84;;;-140.72;100.00
38197;BME280;26543;51.976;4.616;2024-02-16T10:07:50;61743.94;;;-140.72;100.00
38197;BME280;26543;51.976;4.616;2024-02-16T10:10:23;61902.59;;;-140.72;100.00
38197;BME280;26543;51.976;4.616;2024-02-16T10:12:49;62089.72;;;-140.72;100.00
38197;BME280;26543;51.976;4.616;2024-02-16T10:15:21;62240.25;;;-140.72;100.00
38197;BME280;26543;51.976;4.616;2024-02-16T10:18:00;62417.22;;;-140.72;100.00
38197;BME280;26543;51.976;4.616;2024-02-16T10:20:26;62539.28;;;-140.72;100.00
38197;BME280;26543;51.976;4.616;2024-02-16T10:23:07;62653.19;;;-140.72;100.00
38197;BME280;26543;51.976;4.616;2024-02-16T10:25:34;62783.41;;;-140.72;100.00
38197;BME280;26543;51.976;4.616;2024-02-16T10:28:05;62899.38;;;-140.72;100.00
38197;BME280;26543;51.976;4.616;2024-02-16T10:30:35;63045.84;;;-140.72;100.00
38197;BME280;26543;51.976;4.616;2024-02-16T10:33:02;63133.34;;;-140.72;100.00
38197;BME280;26543;51.976;4.616;2024-02-16T10:35:29;63255.41;;;-140.72;100.00
38197;BME280;26543;51.976;4.616;2024-02-16T10:37:55;63344.94;;;-140.72;100.00
38197;BME280;26543;51.976;4.616;2024-02-16T10:40:22;63473.13;;;-140.72;100.00
38197;BME280;26543;51.976;4.616;2024-02-16T10:42:49;63589.13;;;-140.72;100.00
38197;BME280;26543;51.976;4.616;2024-02-16T10:45:17;63635.91;;;-140.72;100.00
38197;BME280;26543;51.976;4.616;2024-02-16T10:47:42;63699.00;;;-140.72;100.00
38197;BME280;26543;51.976;4.616;2024-02-16T10:50:07;63804.81;;;-140.72;100.00
38197;BME280;26543;51.976;4.616;2024-02-16T10:52:35;63859.75;;;-140.72;100.00
38197;BME280;26543;51.976;4.616;2024-02-16T10:55:04;63949.31;;;-140.72;100.00
38197;BME280;26543;51.976;4.616;2024-02-16T10:57:30;64004.25;;;-140.72;100.00
38197;BME280;26543;51.976;4.616;2024-02-16T10:59:56;64108.03;;;-140.72;100.00
38197;BME280;26543;51.976;4.616;2024-02-16T11:02:23;64154.84;;;-140.72;100.00
38197;BME280;26543;51.976;4.616;2024-02-16T11:04:51;64193.50;;;-140.72;100.00
38197;BME280;26543;51.976;4.616;2024-02-16T11:07:18;64169.09;;;-140.72;100.00
38197;BME280;26543;51.976;4.616;2024-02-16T11:09:45;64205.72;;;-140.72;100.00
38197;BME280;26543;51.976;4.616;2024-02-16T11:12:14;64250.50;;;-140.72;100.00
38197;BME280;26543;51.976;4.616;2024-02-16T11:14:45;64266.78;;;-140.72;100.00
38197;BME280;26543;51.976;4.616;2024-02-16T11:17:16;64224.03;;;-140.72;100.00
38197;BME280;26543;51.976;4.616;2024-02-16T11:19:45;64317.66;;;-140.72;100.00
38197;BME280;26543;51.976;4.616;2024-02-16T11:22:15;64254.56;;;-140.72;100.00
38197;BME280;26543;51.976;4.616;2024-02-16T11:24:48;64287.13;;;-140.72;100.00
38197;BME280;26543;51.976;4.616;2024-02-16T11:27:15;64274.91;;;-140.72;100.00
38197;BME280;26543;51.976;4.616;2024-02-16T11:29:44;64315.63;;;-140.72;100.00
38197;BME280;26543;51.976;4.616;2024-02-16T11:32:10;64315.63;;;-140.72;100.00
38197;BME280;26543;51.976;4.616;2024-02-16T11:34:35;64340.03;;;-140.72;100.00
38197;BME280;26543;51.976;4.616;2024-02-16T11:37:03;64348.19;;;-140.72;100.00
38197;BME280;26543;51.976;4.616;2024-02-16T11:39:30;64340.03;;;-140.72;100.00
38197;BME280;26543;51.976;4.616;2024-02-16T11:44:33;64346.16;;;-140.72;100.00
38197;BME280;26543;51.976;4.616;2024-02-16T11:46:59;64319.69;;;-140.72;100.00
38197;BME280;26543;51.976;4.616;2024-02-16T11:49:24;64329.88;;;-140.72;100.00
38197;BME280;26543;51.976;4.616;2024-02-16T11:51:50;64252.53;;;-140.72;100.00
38197;BME280;26543;51.976;4.616;2024-02-16T11:54:16;64224.03;;;-140.72;100.00
38197;BME280;26543;51.976;4.616;2024-02-16T11:56:48;64193.50;;;-140.72;100.00
38197;BME280;26543;51.976;4.616;2024-02-16T11:59:17;64156.88;;;-140.72;100.00
38197;BME280;26543;51.976;4.616;2024-02-16T12:01:50;64071.41;;;-140.72;100.00
38197;BME280;26543;51.976;4.616;2024-02-16T12:04:27;64024.59;;;-140.72;100.00
38197;BME280;26543;51.976;4.616;2024-02-16T12:06:58;63916.75;;;-140.72;100.00
38197;BME280;26543;51.976;4.616;2024-02-16T12:09:24;63810.91;;;-140.72;100.00
38197;BME280;26543;51.976;4.616;2024-02-16T12:11:51;63782.44;;;-140.72;100.00
38197;BME280;26543;51.976;4.616;2024-02-16T12:14:18;63611.50;;;-140.72;100.00
38197;BME280;26543;51.976;4.616;2024-02-16T12:16:56;63448.72;;;-140.72;100.00
38197;BME280;26543;51.976;4.616;2024-02-16T12:19:22;63239.13;;;-140.72;100.00
38197;BME280;26543;51.976;4.616;2024-02-16T12:21:52;63027.53;;;-140.72;100.00
38197;BME280;26543;51.976;4.616;2024-02-16T12:24:18;62852.56;;;-140.72;100.00
38197;BME280;26543;51.976;4.616;2024-02-16T12:26:43;62651.16;;;-140.72;100.00
38197;BME280;26543;51.976;4.616;2024-02-16T12:29:09;62435.53;;;-140.72;100.00